Time;durP1;ratioP1;P1;durP2;ratioP2;P2;SDS_P1;SDS_P2;PMS_P1;PMS_P2;Temp;Humidity;BMP_temperature;BMP_pressure;BME280_temperature;BME280_humidity;BME280_pressure;Samples;Min_cycle;Max_cycle;Signal;HPM_P1;HPM_P2
2022/01/07 00:01:36;;;;;;;;;;;;;;;2.40;100.00;101157.50;5095244;28;19920;-83
2022/01/07 00:04:03;;;;;;;;;;;;;;;2.40;100.00;101149.69;5079280;28;20014;-81
2022/01/07 00:06:30;;;;;;;;;;;;;;;2.41;100.00;101151.50;5079505;28;19955;-86
2022/01/07 00:08:55;;;;;;;;;;;;;;;2.48;100.00;101142.47;5060800;28;19928;-85
2022/01/07 00:11:21;;;;;;;;;;;;;;;2.50;100.00;101133.06;5077561;28;20089;-83
2022/01/07 00:13:48;;;;;;;;;;;;;;;2.50;100.00;101140.88;5095743;28;19967;-77
2022/01/07 00:16:16;;;;;;;;;;;;;;;2.50;100.00;101134.00;5077615;28;19924;-81
2022/01/07 00:18:43;;;;;;;;;;;;;;;2.53;100.00;101130.69;5050946;28;20503;-78
2022/01/07 00:21:09;;;;;;;;;;;;;;;2.54;100.00;101119.50;5057041;28;20303;-79
2022/01/07 00:23:35;;;;;;;;;;;;;;;2.55;100.00;101123.00;5056759;28;19950;-81
2022/01/07 00:26:00;;;;;;;;;;;;;;;2.54;100.00;101121.22;5056697;28;19920;-81
2022/01/07 00:28:25;;;;;;;;;;;;;;;2.56;100.00;101115.31;5056588;28;19947;-79
2022/01/07 00:30:51;;;;;;;;;;;;;;;2.61;100.00;101120.84;5056698;28;20372;-80
2022/01/07 00:33:17;;;;;;;;;;;;;;;2.58;100.00;101118.94;5057240;28;19920;-81
2022/01/07 00:35:43;;;;;;;;;;;;;;;2.60;100.00;101116.47;5055247;28;19960;-86
2022/01/07 00:38:09;;;;;;;;;;;;;;;2.62;100.00;101107.06;5074201;28;19921;-79
2022/01/07 00:40:34;;;;;;;;;;;;;;;2.63;100.00;101106.28;5056894;28;20308;-83
2022/01/07 00:43:02;;;;;;;;;;;;;;;2.60;100.00;101101.75;5057574;28;19920;-82
2022/01/07 00:45:27;;;;;;;;;;;;;;;2.60;100.00;101093.06;5061122;28;20028;-84
2022/01/07 00:47:54;;;;;;;;;;;;;;;2.57;100.00;101091.13;5078383;28;20423;-81
2022/01/07 00:50:21;;;;;;;;;;;;;;;2.54;100.00;101106.50;5045158;28;19924;-85
2022/01/07 00:52:58;;;;;;;;;;;;;;;2.45;100.00;101091.13;5061085;28;19928;-81
2022/01/07 00:55:25;;;;;;;;;;;;;;;2.46;100.00;101082.56;5060683;28;19920;-82
2022/01/07 00:57:52;;;;;;;;;;;;;;;2.50;100.00;101084.59;5064632;28;19935;-82
2022/01/07 01:00:21;;;;;;;;;;;;;;;2.51;100.00;101088.97;5063747;28;19921;-79
2022/01/07 01:02:55;;;;;;;;;;;;;;;2.51;100.00;101081.19;5060061;28;20470;-85
2022/01/07 01:05:21;;;;;;;;;;;;;;;2.54;100.00;101079.63;5060634;28;19920;-83
2022/01/07 01:07:47;;;;;;;;;;;;;;;2.48;100.00;101078.38;5077245;28;19920;-85
2022/01/07 01:10:13;;;;;;;;;;;;;;;2.43;100.00;101071.94;5059968;28;19928;-79
2022/01/07 01:12:42;;;;;;;;;;;;;;;2.47;100.00;101067.84;5060051;28;19920;-80
2022/01/07 01:15:10;;;;;;;;;;;;;;;2.41;100.00;101062.22;5060695;28;20360;-78
2022/01/07 01:17:35;;;;;;;;;;;;;;;2.41;100.00;101067.41;5078006;28;19927;-76
2022/01/07 01:20:05;;;;;;;;;;;;;;;2.40;100.00;101066.53;5079691;28;19920;-80
2022/01/07 01:22:31;;;;;;;;;;;;;;;2.39;100.00;101071.59;5079565;28;19942;-79
2022/01/07 01:24:56;;;;;;;;;;;;;;;2.34;100.00;101055.69;5079600;28;19928;-80
2022/01/07 01:27:22;;;;;;;;;;;;;;;2.37;100.00;101049.81;5079899;28;19924;-77
2022/01/07 01:29:48;;;;;;;;;;;;;;;2.37;100.00;101052.41;5079618;28;19931;-80
2022/01/07 01:32:16;;;;;;;;;;;;;;;2.34;100.00;101046.19;5079616;28;19920;-82
2022/01/07 01:34:44;;;;;;;;;;;;;;;2.32;100.00;101046.88;5080108;28;19920;-82
2022/01/07 01:37:10;;;;;;;;;;;;;;;2.36;100.00;101043.69;5079388;28;19926;-79
2022/01/07 01:39:35;;;;;;;;;;;;;;;2.34;100.00;101045.28;5062825;28;20006;-82
2022/01/07 01:42:03;;;;;;;;;;;;;;;2.36;100.00;101048.88;5079592;28;19974;-83
2022/01/07 01:44:29;;;;;;;;;;;;;;;2.38;100.00;101036.00;5079070;28;20004;-83
2022/01/07 01:46:54;;;;;;;;;;;;;;;2.42;100.00;101033.72;5079363;28;19955;-78
2022/01/07 01:49:20;;;;;;;;;;;;;;;2.41;100.00;101025.81;5079969;28;19927;-83
2022/01/07 01:51:47;;;;;;;;;;;;;;;2.42;100.00;101030.25;5084255;28;19924;-79
2022/01/07 01:54:12;;;;;;;;;;;;;;;2.48;100.00;101030.69;5079981;28;19956;-81
2022/01/07 01:56:38;;;;;;;;;;;;;;;2.50;100.00;101017.00;5079321;28;19947;-83
2022/01/07 01:59:03;;;;;;;;;;;;;;;2.51;100.00;101021.41;5079349;28;19920;-86
2022/01/07 02:01:29;;;;;;;;;;;;;;;2.53;100.00;101018.91;5080673;28;19924;-84
2022/01/07 02:03:56;;;;;;;;;;;;;;;2.57;100.00;101017.44;5080640;28;19924;-82
2022/01/07 02:06:22;;;;;;;;;;;;;;;2.56;100.00;101013.03;5081568;28;19927;-83
2022/01/07 02:08:49;;;;;;;;;;;;;;;2.54;100.00;101015.53;5065032;28;19924;-84
2022/01/07 02:11:14;;;;;;;;;;;;;;;2.54;100.00;101017.22;5079698;28;19953;-82
2022/01/07 02:13:41;;;;;;;;;;;;;;;2.57;100.00;101012.25;5062834;28;19961;-82
2022/01/07 02:16:06;;;;;;;;;;;;;;;2.59;100.00;101008.06;5077084;28;20399;-84
2022/01/07 02:18:32;;;;;;;;;;;;;;;2.57;100.00;101007.94;5080561;28;19920;-79
2022/01/07 02:20:58;;;;;;;;;;;;;;;2.55;100.00;101008.63;5079549;28;19952;-85
2022/01/07 02:23:23;;;;;;;;;;;;;;;2.58;100.00;100996.75;5078818;28;19924;-88
2022/01/07 02:25:49;;;;;;;;;;;;;;;2.61;100.00;101009.03;5080128;28;19920;-79
2022/01/07 02:28:14;;;;;;;;;;;;;;;2.57;100.00;101000.13;5078684;28;19927;-78
2022/01/07 02:30:39;;;;;;;;;;;;;;;2.59;100.00;101008.94;5079115;28;19983;-78
2022/01/07 02:33:06;;;;;;;;;;;;;;;2.55;100.00;101001.75;5079521;28;19930;-80
2022/01/07 02:35:32;;;;;;;;;;;;;;;2.55;100.00;100993.00;5079172;28;19921;-77
2022/01/07 02:37:58;;;;;;;;;;;;;;;2.54;100.00;100993.84;5078655;28;19920;-78
2022/01/07 02:40:26;;;;;;;;;;;;;;;2.49;100.00;101004.78;5078281;28;20446;-78
2022/01/07 02:42:52;;;;;;;;;;;;;;;2.52;100.00;101004.13;5079611;28;20002;-82
2022/01/07 02:45:17;;;;;;;;;;;;;;;2.51;100.00;100992.78;5083004;28;19932;-77
2022/01/07 02:47:55;;;;;;;;;;;;;;;2.53;100.00;100994.63;5063328;28;20307;-76
2022/01/07 02:50:33;;;;;;;;;;;;;;;2.56;100.00;100987.91;5058834;28;19920;-83
2022/01/07 02:53:00;;;;;;;;;;;;;;;2.60;100.00;100984.75;5058647;28;19947;-77
2022/01/07 02:55:25;;;;;;;;;;;;;;;2.65;100.00;100982.47;5057517;28;19955;-79
2022/01/07 02:57:52;;;;;;;;;;;;;;;2.63;100.00;100989.28;5058241;28;20503;-80
2022/01/07 03:00:18;;;;;;;;;;;;;;;2.67;100.00;100978.28;5058613;28;19921;-80
2022/01/07 03:02:47;;;;;;;;;;;;;;;2.69;100.00;100981.91;5059500;28;19983;-78
2022/01/07 03:05:12;;;;;;;;;;;;;;;2.70;100.00;100981.09;5058330;28;20042;-82
2022/01/07 03:07:38;;;;;;;;;;;;;;;2.71;100.00;100982.00;5057690;28;20011;-78
2022/01/07 03:10:04;;;;;;;;;;;;;;;2.72;100.00;100986.41;5058147;28;19917;-81
2022/01/07 03:12:30;;;;;;;;;;;;;;;2.75;100.00;100976.22;5076172;28;19928;-84
2022/01/07 03:14:56;;;;;;;;;;;;;;;2.73;100.00;100983.91;5058470;28;19920;-79
2022/01/07 03:17:21;;;;;;;;;;;;;;;2.78;100.00;100982.56;5040811;28;19927;-78
2022/01/07 03:19:46;;;;;;;;;;;;;;;2.80;100.00;100986.16;5074425;28;19931;-79
2022/01/07 03:22:13;;;;;;;;;;;;;;;2.84;100.00;100980.38;5093830;28;19920;-78
2022/01/07 03:24:40;;;;;;;;;;;;;;;2.84;100.00;100971.66;5093950;28;19924;-79
2022/01/07 03:27:06;;;;;;;;;;;;;;;2.85;100.00;100976.94;5094716;28;19946;-80
2022/01/07 03:29:32;;;;;;;;;;;;;;;2.88;100.00;100969.34;5093915;28;19920;-84
2022/01/07 03:32:00;;;;;;;;;;;;;;;2.88;100.00;100973.66;5094700;28;19920;-78
2022/01/07 03:34:25;;;;;;;;;;;;;;;2.90;100.00;100971.19;5094488;28;20216;-78
2022/01/07 03:36:50;;;;;;;;;;;;;;;2.93;100.00;100971.38;5078135;28;19924;-77
2022/01/07 03:39:16;;;;;;;;;;;;;;;2.91;100.00;100965.19;5099054;28;19926;-77
2022/01/07 03:41:41;;;;;;;;;;;;;;;2.90;100.00;100961.66;5094860;28;20527;-81
2022/01/07 03:44:07;;;;;;;;;;;;;;;2.88;100.00;100955.47;5095148;28;19928;-76
2022/01/07 03:46:33;;;;;;;;;;;;;;;2.84;100.00;100958.63;5094749;28;19926;-78
2022/01/07 03:48:58;;;;;;;;;;;;;;;2.91;100.00;100962.59;5093550;28;20010;-81
2022/01/07 03:51:23;;;;;;;;;;;;;;;2.83;100.00;100952.53;5077164;28;20314;-81
2022/01/07 03:53:49;;;;;;;;;;;;;;;2.90;100.00;100948.66;5093296;28;19920;-75
2022/01/07 03:56:18;;;;;;;;;;;;;;;2.87;100.00;100944.16;5094141;28;20346;-76
2022/01/07 03:58:45;;;;;;;;;;;;;;;2.91;100.00;100941.78;5093740;28;19920;-79
2022/01/07 04:01:10;;;;;;;;;;;;;;;2.91;100.00;100939.19;5094977;28;19927;-80
2022/01/07 04:03:39;;;;;;;;;;;;;;;2.93;100.00;100940.16;5093385;28;19920;-74
2022/01/07 04:06:04;;;;;;;;;;;;;;;2.89;100.00;100933.88;5093945;28;20368;-76
2022/01/07 04:08:30;;;;;;;;;;;;;;;2.92;100.00;100928.88;5094806;28;19927;-76
2022/01/07 04:10:55;;;;;;;;;;;;;;;2.97;100.00;100926.59;5077556;28;20012;-78
2022/01/07 04:13:25;;;;;;;;;;;;;;;2.97;100.00;100924.00;5094472;28;19920;-77
2022/01/07 04:15:52;;;;;;;;;;;;;;;2.98;100.00;100928.38;5094067;28;19990;-77
2022/01/07 04:18:17;;;;;;;;;;;;;;;2.97;100.00;100935.28;5093637;28;19928;-78
2022/01/07 04:20:43;;;;;;;;;;;;;;;3.03;100.00;100934.78;5094738;28;20373;-78
2022/01/07 04:23:14;;;;;;;;;;;;;;;3.08;100.00;100940.28;5097478;28;19973;-79
2022/01/07 04:25:40;;;;;;;;;;;;;;;3.09;100.00;100936.91;5097711;28;20314;-77
2022/01/07 04:28:06;;;;;;;;;;;;;;;3.09;100.00;100927.38;5097513;28;19920;-76
2022/01/07 04:30:34;;;;;;;;;;;;;;;3.11;100.00;100928.41;5099325;28;19920;-77
2022/01/07 04:33:02;;;;;;;;;;;;;;;3.15;100.00;100930.41;5101281;28;20500;-83
2022/01/07 04:35:27;;;;;;;;;;;;;;;3.15;100.00;100939.91;5100008;28;20281;-82
2022/01/07 04:37:53;;;;;;;;;;;;;;;3.17;100.00;100939.22;5099429;28;19916;-80
2022/01/07 04:40:19;;;;;;;;;;;;;;;3.17;100.00;100936.63;5099400;28;20332;-82
2022/01/07 04:42:45;;;;;;;;;;;;;;;3.20;100.00;100930.69;5102090;28;20279;-78
2022/01/07 04:45:11;;;;;;;;;;;;;;;3.23;100.00;100942.25;5100587;28;19920;-82
2022/01/07 04:47:37;;;;;;;;;;;;;;;3.21;100.00;100935.13;5100469;28;19969;-77
2022/01/07 04:50:10;;;;;;;;;;;;;;;3.22;100.00;100930.03;5102527;28;20351;-77
2022/01/07 04:52:40;;;;;;;;;;;;;;;3.29;100.00;100930.44;5102256;28;20319;-80
2022/01/07 04:55:06;;;;;;;;;;;;;;;3.28;100.00;100919.13;5102417;28;19920;-80
2022/01/07 04:57:33;;;;;;;;;;;;;;;3.27;100.00;100921.63;5103227;28;19943;-77
2022/01/07 04:59:58;;;;;;;;;;;;;;;3.29;100.00;100920.00;5101104;28;20395;-84
2022/01/07 05:02:26;;;;;;;;;;;;;;;3.29;100.00;100922.63;5083687;28;19924;-82
2022/01/07 05:04:53;;;;;;;;;;;;;;;3.35;100.00;100915.22;5100303;28;19927;-84
2022/01/07 05:07:18;;;;;;;;;;;;;;;3.37;100.00;100922.34;5104475;28;19920;-79
2022/01/07 05:09:43;;;;;;;;;;;;;;;3.35;100.00;100910.00;5103166;28;19927;-81
2022/01/07 05:12:12;;;;;;;;;;;;;;;3.39;100.00;100901.63;5101730;28;19926;-76
2022/01/07 05:14:37;;;;;;;;;;;;;;;3.40;100.00;100924.22;5102859;28;19926;-80
2022/01/07 05:17:03;;;;;;;;;;;;;;;3.43;100.00;100927.03;5102887;28;20010;-81
2022/01/07 05:19:28;;;;;;;;;;;;;;;3.42;100.00;100925.25;5099249;28;19924;-79
2022/01/07 05:21:53;;;;;;;;;;;;;;;3.44;100.00;100925.34;5098212;28;19931;-79
2022/01/07 05:24:18;;;;;;;;;;;;;;;3.44;100.00;100926.25;5084967;28;19924;-76
2022/01/07 05:26:43;;;;;;;;;;;;;;;3.42;100.00;100920.94;5083754;28;19924;-80
2022/01/07 05:29:09;;;;;;;;;;;;;;;3.44;100.00;100925.34;5100573;28;20025;-80
2022/01/07 05:31:34;;;;;;;;;;;;;;;3.45;100.00;100932.34;5099100;28;20298;-81
2022/01/07 05:34:00;;;;;;;;;;;;;;;3.48;100.00;100927.31;5100740;28;19920;-82
2022/01/07 05:36:25;;;;;;;;;;;;;;;3.47;100.00;100948.97;5101002;28;20380;-81
2022/01/07 05:38:50;;;;;;;;;;;;;;;3.46;100.00;100945.44;5083432;28;19928;-81
2022/01/07 05:41:16;;;;;;;;;;;;;;;3.49;100.00;100932.63;5099358;28;20592;-78
2022/01/07 05:43:42;;;;;;;;;;;;;;;3.50;100.00;100938.75;5099543;28;19920;-77
2022/01/07 05:46:13;;;;;;;;;;;;;;;3.47;100.00;100930.75;5097643;28;19923;-80
2022/01/07 05:48:39;;;;;;;;;;;;;;;3.50;100.00;100937.06;5078905;28;19999;-80
2022/01/07 05:51:05;;;;;;;;;;;;;;;3.52;100.00;100938.03;5079873;28;19924;-80
2022/01/07 05:53:33;;;;;;;;;;;;;;;3.55;100.00;100932.16;5080970;28;20007;-78
2022/01/07 05:55:58;;;;;;;;;;;;;;;3.55;100.00;100935.66;5078701;28;20273;-81
2022/01/07 05:58:25;;;;;;;;;;;;;;;3.55;100.00;100934.75;5079758;28;19925;-78
2022/01/07 06:00:50;;;;;;;;;;;;;;;3.55;100.00;100925.22;5080417;28;19928;-83
2022/01/07 06:03:17;;;;;;;;;;;;;;;3.53;100.00;100929.44;5079644;28;19921;-82
2022/01/07 06:05:43;;;;;;;;;;;;;;;3.59;100.00;100937.66;5078251;28;20349;-80
2022/01/07 06:08:09;;;;;;;;;;;;;;;3.58;100.00;100940.16;5078997;28;19962;-82
2022/01/07 06:10:34;;;;;;;;;;;;;;;3.63;100.00;100937.84;5069353;28;19966;-80
2022/01/07 06:13:06;;;;;;;;;;;;;;;3.63;100.00;100932.66;5101496;28;19920;-84
2022/01/07 06:15:31;;;;;;;;;;;;;;;3.66;100.00;100938.94;5100685;28;19927;-82
2022/01/07 06:17:56;;;;;;;;;;;;;;;3.62;100.00;100930.84;5108102;28;20140;-79
2022/01/07 06:20:22;;;;;;;;;;;;;;;3.64;100.00;100939.66;5102130;28;19942;-82
2022/01/07 06:22:48;;;;;;;;;;;;;;;3.63;100.00;100940.47;5099445;28;19927;-84
2022/01/07 06:25:14;;;;;;;;;;;;;;;3.64;100.00;100929.25;5099878;28;20292;-76
2022/01/07 06:27:39;;;;;;;;;;;;;;;3.69;100.00;100938.25;5100825;28;19920;-79
2022/01/07 06:30:06;;;;;;;;;;;;;;;3.71;100.00;100931.44;5099823;28;19924;-81
2022/01/07 06:32:42;;;;;;;;;;;;;;;3.67;100.00;100940.75;5100890;28;19920;-77
2022/01/07 06:35:09;;;;;;;;;;;;;;;3.68;100.00;100942.56;5101339;28;19927;-82
2022/01/07 06:37:34;;;;;;;;;;;;;;;3.72;100.00;100938.47;5099746;28;19924;-78
2022/01/07 06:40:00;;;;;;;;;;;;;;;3.71;100.00;100934.03;5084043;28;19927;-82
2022/01/07 06:42:25;;;;;;;;;;;;;;;3.73;100.00;100935.06;5079191;28;19951;-82
2022/01/07 06:44:50;;;;;;;;;;;;;;;3.70;100.00;100929.66;5079087;28;19924;-81
2022/01/07 06:47:15;;;;;;;;;;;;;;;3.64;100.00;100939.66;5090625;28;20007;-83
2022/01/07 06:49:41;;;;;;;;;;;;;;;3.70;100.00;100940.06;5081304;28;19924;-84
2022/01/07 06:52:06;;;;;;;;;;;;;;;3.69;100.00;100946.97;5100334;28;19951;-84
2022/01/07 06:54:31;;;;;;;;;;;;;;;3.69;100.00;100943.47;5101492;28;19920;-81
2022/01/07 06:56:57;;;;;;;;;;;;;;;3.72;100.00;100943.66;5099199;28;19927;-83
2022/01/07 06:59:22;;;;;;;;;;;;;;;3.72;100.00;100943.66;5096024;28;20011;-80
2022/01/07 07:01:50;;;;;;;;;;;;;;;3.73;100.00;100955.91;5096548;28;19955;-79
2022/01/07 07:04:15;;;;;;;;;;;;;;;3.70;100.00;100951.38;5099628;28;19924;-84
2022/01/07 07:06:41;;;;;;;;;;;;;;;3.71;100.00;100941.84;5102206;28;19920;-84
2022/01/07 07:09:07;;;;;;;;;;;;;;;3.68;100.00;100950.38;5082258;28;19983;-84
2022/01/07 07:11:32;;;;;;;;;;;;;;;3.67;100.00;100942.47;5087893;28;19920;-80
2022/01/07 07:14:02;;;;;;;;;;;;;;;3.65;100.00;100939.78;5083049;28;19987;-81
2022/01/07 07:16:28;;;;;;;;;;;;;;;3.58;100.00;100942.75;5082096;28;19946;-85
2022/01/07 07:18:53;;;;;;;;;;;;;;;3.54;100.00;100944.28;5056014;28;20005;-79
2022/01/07 07:21:19;;;;;;;;;;;;;;;3.56;100.00;100949.59;5060513;28;19920;-84
2022/01/07 07:23:50;;;;;;;;;;;;;;;3.55;100.00;100946.06;5063218;28;20343;-88
2022/01/07 07:26:15;;;;;;;;;;;;;;;3.59;100.00;100949.78;5063707;28;19931;-84
2022/01/07 07:28:40;;;;;;;;;;;;;;;3.61;100.00;100942.97;5061161;28;20015;-83
2022/01/07 07:31:11;;;;;;;;;;;;;;;3.63;100.00;100935.25;5063847;28;19928;-86
2022/01/07 07:36:31;;;;;;;;;;;;;;;3.48;100.00;100930.84;5054606;28;19959;-84
2022/01/07 07:39:03;;;;;;;;;;;;;;;3.48;100.00;100924.72;5060870;28;20300;-81
2022/01/07 07:41:29;;;;;;;;;;;;;;;3.41;100.00;100923.44;5062882;28;20275;-83
2022/01/07 07:43:56;;;;;;;;;;;;;;;3.39;100.00;100918.13;5060081;28;19917;-82
2022/01/07 07:46:21;;;;;;;;;;;;;;;3.32;100.00;100935.84;5060202;28;19966;-82
2022/01/07 07:48:47;;;;;;;;;;;;;;;3.30;100.00;100934.84;5060694;28;19924;-84
2022/01/07 07:51:13;;;;;;;;;;;;;;;3.27;100.00;100935.53;5059996;28;19967;-84
2022/01/07 07:53:39;;;;;;;;;;;;;;;3.24;100.00;100938.81;5060164;28;19927;-82
2022/01/07 07:56:06;;;;;;;;;;;;;;;3.19;100.00;100935.03;5060011;28;19933;-86
2022/01/07 07:58:33;;;;;;;;;;;;;;;3.18;100.00;100940.13;5059669;28;20400;-81
2022/01/07 08:00:59;;;;;;;;;;;;;;;3.18;100.00;100948.81;5077301;28;20369;-81
2022/01/07 08:03:25;;;;;;;;;;;;;;;3.18;100.00;100946.22;5046230;28;19929;-80
2022/01/07 08:05:50;;;;;;;;;;;;;;;3.17;100.00;100956.53;5060270;28;19921;-82
2022/01/07 08:08:15;;;;;;;;;;;;;;;3.20;100.00;100957.66;5059984;28;20375;-80
2022/01/07 08:10:47;;;;;;;;;;;;;;;3.23;100.00;100959.53;5059274;28;19921;-83
2022/01/07 08:18:24;;;;;;;;;;;;;;;3.19;100.00;100957.56;5085043;28;19942;-82
2022/01/07 08:20:49;;;;;;;;;;;;;;;3.27;100.00;100960.66;5080500;28;19920;-83
2022/01/07 08:23:15;;;;;;;;;;;;;;;3.29;100.00;100956.44;5080414;28;19924;-86
2022/01/07 08:25:40;;;;;;;;;;;;;;;3.26;100.00;100953.66;5078808;28;20236;-78
2022/01/07 08:28:06;;;;;;;;;;;;;;;3.30;100.00;100958.28;5079676;28;20038;-84
2022/01/07 08:36:01;;;;;;;;;;;;;;;3.23;100.00;100950.06;5099276;28;20268;-84
2022/01/07 08:38:26;;;;;;;;;;;;;;;3.27;100.00;100960.66;5080813;28;19920;-86
2022/01/07 08:40:52;;;;;;;;;;;;;;;3.29;100.00;100959.94;5062785;28;20243;-84
2022/01/07 08:43:21;;;;;;;;;;;;;;;3.27;100.00;100963.28;5080954;28;19920;-78
2022/01/07 08:45:47;;;;;;;;;;;;;;;3.34;100.00;100950.78;5079652;28;20340;-82
2022/01/07 08:48:12;;;;;;;;;;;;;;;3.32;100.00;100957.56;5063854;28;20006;-80
2022/01/07 08:50:38;;;;;;;;;;;;;;;3.35;100.00;100957.75;5079144;28;19949;-84
2022/01/07 08:53:05;;;;;;;;;;;;;;;3.37;100.00;100948.38;5078421;28;20019;-82
2022/01/07 08:55:30;;;;;;;;;;;;;;;3.46;100.00;100948.06;5077933;28;19920;-83
2022/01/07 08:57:55;;;;;;;;;;;;;;;3.48;100.00;100954.28;5085096;28;19920;-84
2022/01/07 09:00:20;;;;;;;;;;;;;;;3.54;100.00;100951.16;5064449;28;19920;-85
2022/01/07 09:02:46;;;;;;;;;;;;;;;3.64;100.00;100950.09;5077658;28;19981;-79
2022/01/07 09:05:11;;;;;;;;;;;;;;;3.70;100.00;100955.69;5079352;28;19916;-83
2022/01/07 09:07:36;;;;;;;;;;;;;;;3.82;100.00;100951.25;5080701;28;19974;-77
2022/01/07 09:10:03;;;;;;;;;;;;;;;3.92;100.00;100948.44;5081394;28;19945;-83
2022/01/07 09:12:32;;;;;;;;;;;;;;;4.04;100.00;100937.94;5084148;28;19924;-80
2022/01/07 09:14:57;;;;;;;;;;;;;;;4.08;100.00;100932.06;5082728;28;20409;-79
2022/01/07 09:17:23;;;;;;;;;;;;;;;4.02;100.00;100934.28;5081498;28;19916;-80
2022/01/07 09:19:48;;;;;;;;;;;;;;;3.95;100.00;100922.59;5065730;28;19931;-80
2022/01/07 09:22:20;;;;;;;;;;;;;;;4.00;100.00;100937.63;5099569;28;20006;-79
2022/01/07 09:24:45;;;;;;;;;;;;;;;4.04;100.00;100927.50;5080230;28;19920;-80
2022/01/07 09:27:11;;;;;;;;;;;;;;;3.99;100.00;100923.69;5080697;28;19920;-81
2022/01/07 09:29:36;;;;;;;;;;;;;;;3.99;100.00;100928.00;5081214;28;19920;-79
2022/01/07 09:32:05;;;;;;;;;;;;;;;3.99;100.00;100928.88;5082166;28;20229;-77
2022/01/07 09:34:30;;;;;;;;;;;;;;;4.09;100.00;100930.41;5078936;28;20268;-80
2022/01/07 09:36:55;;;;;;;;;;;;;;;4.38;100.00;100941.72;5079289;28;19920;-77
2022/01/07 09:39:20;;;;;;;;;;;;;;;4.42;100.00;100928.09;5080125;28;20267;-76
2022/01/07 09:41:49;;;;;;;;;;;;;;;4.42;100.00;100920.28;5079734;28;19955;-77
2022/01/07 09:44:14;;;;;;;;;;;;;;;4.32;100.00;100918.81;5079448;28;19924;-78
2022/01/07 09:46:40;;;;;;;;;;;;;;;4.31;100.00;100914.38;5080015;28;20401;-78
2022/01/07 09:49:05;;;;;;;;;;;;;;;4.34;100.00;100914.56;5083385;28;20360;-77
2022/01/07 09:51:31;;;;;;;;;;;;;;;4.43;100.00;100906.44;5083808;28;19928;-81
2022/01/07 09:54:02;;;;;;;;;;;;;;;4.52;100.00;100904.38;5082142;28;19921;-81
2022/01/07 09:56:27;;;;;;;;;;;;;;;4.69;100.00;100902.78;5081458;28;19926;-81
2022/01/07 09:58:52;;;;;;;;;;;;;;;4.93;100.00;100910.31;5081488;28;19920;-83
2022/01/07 10:01:19;;;;;;;;;;;;;;;5.18;100.00;100899.59;5079859;28;19919;-81
2022/01/07 10:03:46;;;;;;;;;;;;;;;5.49;100.00;100909.19;5080230;28;19946;-83
2022/01/07 10:06:19;;;;;;;;;;;;;;;5.64;100.00;100911.78;5079715;28;19923;-82
2022/01/07 10:08:46;;;;;;;;;;;;;;;5.62;100.00;100911.69;5080568;28;19920;-82
2022/01/07 10:11:18;;;;;;;;;;;;;;;5.55;100.00;100899.09;5081423;28;20339;-81
2022/01/07 10:13:50;;;;;;;;;;;;;;;5.63;100.00;100892.59;5081410;28;19920;-85
2022/01/07 10:16:20;;;;;;;;;;;;;;;5.71;100.00;100880.84;5083149;28;19924;-82
2022/01/07 10:18:47;;;;;;;;;;;;;;;5.63;100.00;100876.91;5080631;28;19930;-81
2022/01/07 10:21:13;;;;;;;;;;;;;;;5.72;100.00;100880.03;5081682;28;20344;-83
2022/01/07 10:24:00;;;;;;;;;;;;;;;5.62;100.00;100875.09;5081029;28;19923;-82
2022/01/07 10:26:25;;;;;;;;;;;;;;;5.54;100.00;100863.34;5083543;28;19924;-81
2022/01/07 10:28:52;;;;;;;;;;;;;;;5.53;100.00;100864.13;5081295;28;20016;-82
2022/01/07 10:31:22;;;;;;;;;;;;;;;5.49;100.00;100857.84;5081041;28;20372;-82
2022/01/07 10:33:49;;;;;;;;;;;;;;;5.44;100.00;100854.09;5082819;28;19948;-83
2022/01/07 10:36:19;;;;;;;;;;;;;;;5.42;100.00;100854.81;5082325;28;20321;-84
2022/01/07 10:38:52;;;;;;;;;;;;;;;5.52;100.00;100844.06;5081476;28;19916;-85
2022/01/07 10:41:18;;;;;;;;;;;;;;;5.53;100.00;100844.16;5081153;28;19924;-82
2022/01/07 10:43:43;;;;;;;;;;;;;;;5.55;100.00;100845.13;5085394;28;19916;-87
2022/01/07 10:46:08;;;;;;;;;;;;;;;5.49;100.00;100836.06;5081951;28;19927;-83
2022/01/07 10:48:40;;;;;;;;;;;;;;;5.43;100.00;100820.06;5080174;28;19924;-85
2022/01/07 10:51:06;;;;;;;;;;;;;;;5.46;100.00;100828.06;5080453;28;19927;-84
2022/01/07 10:53:33;;;;;;;;;;;;;;;5.63;100.00;100824.66;5080112;28;20023;-77
2022/01/07 10:56:09;;;;;;;;;;;;;;;5.85;100.00;100823.25;5079160;28;19966;-84
2022/01/07 10:58:43;;;;;;;;;;;;;;;5.97;100.00;100809.97;5080378;28;20015;-85
2022/01/07 11:01:34;;;;;;;;;;;;;;;6.14;100.00;100800.41;5079347;28;19928;-81
2022/01/07 11:04:00;;;;;;;;;;;;;;;6.25;100.00;100799.28;5076449;28;19920;-78
2022/01/07 11:06:27;;;;;;;;;;;;;;;6.28;100.00;100795.09;5079619;28;19926;-86
2022/01/07 11:08:54;;;;;;;;;;;;;;;6.17;100.00;100798.88;5079234;28;19920;-81
2022/01/07 11:11:20;;;;;;;;;;;;;;;6.04;100.00;100797.28;5080742;28;20267;-79
2022/01/07 11:13:52;;;;;;;;;;;;;;;6.01;100.00;100799.78;5077858;28;19920;-83
2022/01/07 11:16:17;;;;;;;;;;;;;;;5.89;100.00;100799.09;5078686;28;19927;-83
2022/01/07 11:18:46;;;;;;;;;;;;;;;5.74;100.00;100810.47;5077524;28;20453;-82
2022/01/07 11:21:11;;;;;;;;;;;;;;;5.76;100.00;100813.16;5078120;28;19927;-81
2022/01/07 11:23:38;;;;;;;;;;;;;;;5.88;100.00;100819.06;5077555;28;19916;-82
2022/01/07 11:26:10;;;;;;;;;;;;;;;5.82;100.00;100820.47;5078415;28;19951;-81
2022/01/07 11:28:37;;;;;;;;;;;;;;;5.84;100.00;100817.13;5077601;28;19951;-84
2022/01/07 11:31:13;;;;;;;;;;;;;;;5.82;100.00;100816.13;5078110;28;19920;-83
2022/01/07 11:33:41;;;;;;;;;;;;;;;5.72;100.00;100819.94;5096752;28;19947;-86
2022/01/07 11:36:32;;;;;;;;;;;;;;;5.83;100.00;100823.16;5085288;28;19920;-83
2022/01/07 11:39:00;;;;;;;;;;;;;;;5.81;100.00;100814.34;5079182;28;19924;-84
2022/01/07 11:41:41;;;;;;;;;;;;;;;5.79;100.00;100810.72;5077963;28;19920;-84
2022/01/07 11:44:21;;;;;;;;;;;;;;;5.62;100.00;100807.19;5078107;28;20006;-81
2022/01/07 11:46:47;;;;;;;;;;;;;;;5.56;100.00;100812.06;5077415;28;19927;-84
2022/01/07 11:49:35;;;;;;;;;;;;;;;5.61;100.00;100812.31;5077162;28;19920;-84
2022/01/07 11:52:23;;;;;;;;;;;;;;;5.61;100.00;100809.72;5077663;28;19920;-84
2022/01/07 11:55:07;;;;;;;;;;;;;;;5.66;100.00;100819.63;5078058;28;19920;-82
2022/01/07 11:57:52;;;;;;;;;;;;;;;5.60;100.00;100813.16;5076666;28;19927;-83
2022/01/07 12:00:46;;;;;;;;;;;;;;;5.39;100.00;100812.03;5077281;28;19927;-84
2022/01/07 12:03:28;;;;;;;;;;;;;;;5.29;100.00;100822.78;5077215;28;19970;-84
2022/01/07 12:05:53;;;;;;;;;;;;;;;5.30;100.00;100814.13;5077817;28;19985;-86
2022/01/07 12:08:19;;;;;;;;;;;;;;;5.19;100.00;100820.47;5078443;28;19924;-82
2022/01/07 12:10:44;;;;;;;;;;;;;;;5.01;100.00;100823.81;5079088;28;19924;-83
2022/01/07 12:13:12;;;;;;;;;;;;;;;4.81;100.00;100811.31;5079376;28;19920;-86
2022/01/07 12:15:40;;;;;;;;;;;;;;;4.56;100.00;100807.25;5078617;28;19927;-82
2022/01/07 12:18:10;;;;;;;;;;;;;;;4.47;100.00;100814.53;5078435;28;19966;-84
2022/01/07 12:20:35;;;;;;;;;;;;;;;4.38;100.00;100803.56;5078366;28;19983;-85
2022/01/07 12:23:02;;;;;;;;;;;;;;;4.25;100.00;100813.22;5080343;28;19932;-89
2022/01/07 12:25:28;;;;;;;;;;;;;;;4.21;100.00;100818.16;5078287;28;19920;-81
2022/01/07 12:28:00;;;;;;;;;;;;;;;4.17;100.00;100814.47;5079017;28;20018;-82
2022/01/07 12:30:26;;;;;;;;;;;;;;;4.09;100.00;100818.34;5082522;28;19920;-82
2022/01/07 12:32:51;;;;;;;;;;;;;;;4.14;100.00;100827.31;5077025;28;19955;-89
2022/01/07 12:35:18;;;;;;;;;;;;;;;4.14;100.00;100809.97;5061057;28;19924;-87
2022/01/07 12:37:43;;;;;;;;;;;;;;;4.13;100.00;100800.38;5080708;28;19938;-84
2022/01/07 12:40:09;;;;;;;;;;;;;;;4.18;100.00;100802.34;5080844;28;20302;-80
2022/01/07 12:42:40;;;;;;;;;;;;;;;4.15;100.00;100795.25;5103268;28;19931;-83
2022/01/07 12:45:06;;;;;;;;;;;;;;;4.14;100.00;100791.72;5105830;28;19947;-82
2022/01/07 12:47:32;;;;;;;;;;;;;;;4.06;100.00;100779.94;5080679;28;20356;-81
2022/01/07 12:49:58;;;;;;;;;;;;;;;4.01;100.00;100775.25;5081546;28;19916;-84